createdAt,value
2022-12-20T00:01:02.011Z,97.77
2022-12-20T00:03:29.953Z,98.41
2022-12-20T00:05:58.903Z,97.75
2022-12-20T00:08:26.849Z,97.93
2022-12-20T00:10:54.660Z,98.04
2022-12-20T00:13:22.489Z,98.75
2022-12-20T00:15:50.401Z,98.95
2022-12-20T00:18:19.685Z,98.02
2022-12-20T00:20:47.590Z,98.29
2022-12-20T00:23:15.349Z,97.53
2022-12-20T00:25:43.188Z,97.06
2022-12-20T00:28:11.056Z,96.95
2022-12-20T00:30:38.977Z,97.75
2022-12-20T00:33:06.885Z,96.90
2022-12-20T00:35:36.096Z,97.66
2022-12-20T00:38:04.012Z,98.57
2022-12-20T00:40:31.863Z,97.27
2022-12-20T00:42:59.913Z,98.57
2022-12-20T00:45:27.762Z,97.96
2022-12-20T00:47:55.647Z,97.26
2022-12-20T00:50:23.529Z,97.82
2022-12-20T00:52:52.797Z,97.58
2022-12-20T00:55:20.634Z,97.01
2022-12-20T00:57:48.510Z,97.79
2022-12-20T01:00:17.462Z,98.06
2022-12-20T01:02:45.389Z,98.25
2022-12-20T01:05:13.372Z,98.31
2022-12-20T01:07:41.145Z,97.79
2022-12-20T01:10:12.173Z,98.42
2022-12-20T01:12:40.027Z,98.62
2022-12-20T01:15:09.209Z,98.32
2022-12-20T01:17:38.039Z,98.30
2022-12-20T01:20:07.514Z,98.39
2022-12-20T01:22:35.612Z,98.76
2022-12-20T01:25:03.490Z,99.13
2022-12-20T01:27:32.767Z,97.95
2022-12-20T01:30:00.701Z,98.87
2022-12-20T01:32:28.569Z,98.58
2022-12-20T01:34:56.462Z,98.41
2022-12-20T01:37:24.293Z,98.88
2022-12-20T01:39:52.165Z,98.71
2022-12-20T01:42:20.382Z,99.02
2022-12-20T01:45:01.379Z,98.55
2022-12-20T01:47:33.400Z,99.41
2022-12-20T01:50:04.240Z,98.54
2022-12-20T01:52:36.988Z,98.49
2022-12-20T01:55:11.175Z,99.38
2022-12-20T01:57:45.722Z,98.94
2022-12-20T02:00:16.950Z,99.01
2022-12-20T02:02:47.568Z,98.26
2022-12-20T02:05:17.611Z,98.56
2022-12-20T02:07:49.562Z,99.45
2022-12-20T02:10:19.997Z,99.23
2022-12-20T02:12:49.623Z,98.68
2022-12-20T02:15:31.878Z,98.83
2022-12-20T02:18:15.102Z,98.92
2022-12-20T02:21:04.206Z,98.65
2022-12-20T02:24:07.846Z,98.16
2022-12-20T02:26:58.834Z,98.72
2022-12-20T02:29:35.325Z,98.37
2022-12-20T02:32:10.342Z,98.58
2022-12-20T02:34:38.910Z,97.84
2022-12-20T02:37:07.327Z,98.13
2022-12-20T02:39:38.473Z,98.16
2022-12-20T02:42:08.547Z,98.35
2022-12-20T02:44:57.213Z,98.74
2022-12-20T02:47:32.020Z,98.64
2022-12-20T02:50:00.783Z,98.32
2022-12-20T02:52:31.122Z,98.57
2022-12-20T02:55:00.946Z,97.70
2022-12-20T02:57:39.485Z,98.15
2022-12-20T03:00:11.607Z,97.34
2022-12-20T03:02:59.941Z,98.03
2022-12-20T03:05:29.121Z,97.89
2022-12-20T03:07:57.275Z,97.48
2022-12-20T03:10:26.873Z,98.78
2022-12-20T03:12:54.854Z,98.65
2022-12-20T03:15:23.065Z,98.92
2022-12-20T03:17:55.880Z,98.81
2022-12-20T03:20:24.182Z,98.78
2022-12-20T03:22:52.499Z,98.08
2022-12-20T03:25:20.496Z,98.48
2022-12-20T03:27:48.672Z,98.74
2022-12-20T03:30:18.973Z,99.85
2022-12-20T03:32:46.893Z,98.83
2022-12-20T03:35:16.723Z,100.00
2022-12-20T03:37:44.986Z,100.00
2022-12-20T03:40:14.193Z,99.30
2022-12-20T03:42:42.125Z,99.60
2022-12-20T03:45:10.999Z,98.50
2022-12-20T03:47:39.041Z,99.69
2022-12-20T03:50:08.233Z,98.72
2022-12-20T03:52:38.170Z,99.29
2022-12-20T03:55:07.243Z,98.18
2022-12-20T03:57:43.944Z,98.01
2022-12-20T04:00:31.641Z,99.82
2022-12-20T04:03:18.465Z,99.17
2022-12-20T04:05:46.654Z,98.96
2022-12-20T04:08:15.956Z,99.68
2022-12-20T04:10:58.013Z,98.31
2022-12-20T04:13:28.955Z,99.32
2022-12-20T04:16:00.640Z,98.06
2022-12-20T04:18:31.979Z,98.36
2022-12-20T04:21:01.876Z,98.79
2022-12-20T04:23:33.448Z,99.78
2022-12-20T04:26:01.792Z,100.00
2022-12-20T04:28:32.569Z,99.65
2022-12-20T04:31:01.289Z,98.73
2022-12-20T04:33:31.102Z,97.99
2022-12-20T04:35:59.361Z,99.07
2022-12-20T04:38:28.714Z,98.80
2022-12-20T04:40:58.372Z,98.93
2022-12-20T04:43:29.041Z,98.01
2022-12-20T04:46:00.000Z,99.04
2022-12-20T04:48:55.627Z,99.04
2022-12-20T04:51:18.595Z,99.29
2022-12-20T04:53:48.683Z,98.65
2022-12-20T04:56:31.008Z,98.49
2022-12-20T04:59:06.163Z,98.93
2022-12-20T05:01:35.173Z,98.79
2022-12-20T05:04:03.841Z,99.08
2022-12-20T05:06:35.744Z,99.65
2022-12-20T05:09:04.302Z,100.00
2022-12-20T05:11:35.341Z,99.86
2022-12-20T05:14:06.860Z,99.75
2022-12-20T05:16:34.945Z,99.35
2022-12-20T05:19:04.639Z,98.40
2022-12-20T05:21:55.625Z,99.44
2022-12-20T05:24:40.824Z,99.64
2022-12-20T05:27:33.093Z,100.00
2022-12-20T05:30:01.507Z,100.00
2022-12-20T05:32:30.447Z,98.99
2022-12-20T05:34:58.467Z,99.42
2022-12-20T05:37:26.583Z,100.00
2022-12-20T05:39:55.825Z,99.29
2022-12-20T05:42:26.515Z,100.00
2022-12-20T05:44:55.820Z,99.95
2022-12-20T05:47:24.020Z,100.00
2022-12-20T05:50:01.561Z,99.89
2022-12-20T05:52:35.079Z,99.18
2022-12-20T05:55:04.237Z,98.89
2022-12-20T05:57:32.647Z,98.68
2022-12-20T06:00:04.647Z,98.45
2022-12-20T06:02:33.913Z,98.73
2022-12-20T06:05:04.965Z,97.73
2022-12-20T06:07:32.914Z,98.76
2022-12-20T06:10:01.777Z,98.01
2022-12-20T06:12:46.804Z,98.57
2022-12-20T06:15:16.439Z,98.91
2022-12-20T06:17:44.301Z,99.13
2022-12-20T06:20:13.562Z,98.60
2022-12-20T06:22:45.202Z,98.71
2022-12-20T06:25:15.318Z,98.08
2022-12-20T06:27:43.666Z,98.33
2022-12-20T06:30:17.120Z,98.31
2022-12-20T06:32:54.634Z,98.46
2022-12-20T06:35:22.510Z,98.05
2022-12-20T06:37:52.119Z,97.88
2022-12-20T06:40:20.119Z,99.05
2022-12-20T06:42:48.294Z,99.11
2022-12-20T06:45:17.905Z,98.80
2022-12-20T06:47:46.234Z,98.80
2022-12-20T06:50:14.169Z,99.34
2022-12-20T06:52:42.661Z,99.03
2022-12-20T06:55:11.374Z,98.52
2022-12-20T06:57:41.429Z,99.89
2022-12-20T07:00:12.714Z,98.91
2022-12-20T07:02:41.935Z,99.13
2022-12-20T07:05:10.183Z,99.27
2022-12-20T07:07:44.609Z,99.48
2022-12-20T07:10:13.317Z,99.92
2022-12-20T07:12:47.457Z,99.46
2022-12-20T07:15:16.225Z,98.97
2022-12-20T07:17:45.740Z,98.29
2022-12-20T07:20:14.733Z,99.73
2022-12-20T07:22:42.882Z,98.61
2022-12-20T07:25:12.176Z,98.32
2022-12-20T07:27:40.114Z,98.81
2022-12-20T07:30:09.212Z,98.55
2022-12-20T07:32:37.372Z,98.47
2022-12-20T07:35:07.408Z,97.36
2022-12-20T07:37:35.248Z,98.24
2022-12-20T07:40:03.299Z,98.42
2022-12-20T07:42:35.739Z,97.91
2022-12-20T07:45:07.569Z,97.07
2022-12-20T07:47:36.141Z,96.54
2022-12-20T07:50:04.413Z,96.69
2022-12-20T07:52:35.224Z,96.97
2022-12-20T07:55:06.673Z,95.81
2022-12-20T07:57:39.809Z,96.75
2022-12-20T08:00:09.955Z,96.65
2022-12-20T08:02:45.300Z,96.26
2022-12-20T08:05:13.641Z,96.30
2022-12-20T08:07:44.604Z,95.54
2022-12-20T08:10:15.389Z,95.82
2022-12-20T08:12:45.138Z,96.50
2022-12-20T08:15:13.138Z,96.05
2022-12-20T08:17:41.140Z,96.04
2022-12-20T08:20:09.830Z,95.88
2022-12-20T08:22:37.718Z,95.79
2022-12-20T08:25:08.333Z,96.45
2022-12-20T08:27:36.353Z,96.28
2022-12-20T08:30:04.929Z,95.95
2022-12-20T08:32:32.876Z,95.46
2022-12-20T08:35:00.866Z,95.99
2022-12-20T08:37:28.822Z,95.51
2022-12-20T08:39:56.800Z,95.22
2022-12-20T08:42:26.027Z,95.12
2022-12-20T08:44:54.049Z,95.83
2022-12-20T08:47:21.935Z,95.12
2022-12-20T08:49:49.865Z,95.32
2022-12-20T08:52:17.712Z,95.55
2022-12-20T08:54:45.609Z,94.36
2022-12-20T08:57:13.680Z,95.62
2022-12-20T08:59:42.871Z,95.16
2022-12-20T09:02:11.035Z,95.38
2022-12-20T09:04:39.172Z,95.44
2022-12-20T09:07:07.098Z,95.89
2022-12-20T09:09:35.507Z,95.57
2022-12-20T09:12:03.403Z,95.12
2022-12-20T09:14:31.280Z,94.64
2022-12-20T09:17:00.511Z,94.79
2022-12-20T09:19:28.746Z,94.42
2022-12-20T09:21:56.863Z,95.23
2022-12-20T09:24:24.766Z,94.82
2022-12-20T09:26:52.657Z,94.23
2022-12-20T09:29:26.960Z,94.74
2022-12-20T09:31:59.171Z,94.14
2022-12-20T09:34:28.523Z,93.54
2022-12-20T09:36:56.484Z,93.19
2022-12-20T09:39:24.390Z,93.20
2022-12-20T09:41:52.259Z,93.36
2022-12-20T09:44:24.582Z,92.71
2022-12-20T09:46:57.086Z,92.75
2022-12-20T09:49:30.471Z,93.04
2022-12-20T09:52:26.556Z,92.27
2022-12-20T09:55:00.612Z,92.16
2022-12-20T09:57:35.284Z,91.27
2022-12-20T10:00:03.590Z,91.06
2022-12-20T10:05:38.800Z,91.17
2022-12-20T10:08:17.365Z,91.45
2022-12-20T10:10:55.904Z,91.72
2022-12-20T10:13:39.034Z,91.80
2022-12-20T10:16:19.585Z,92.06
2022-12-20T10:18:59.838Z,92.10
2022-12-20T10:21:42.827Z,91.58
2022-12-20T10:24:15.416Z,92.57
2022-12-20T10:26:43.605Z,92.79
2022-12-20T10:29:11.470Z,91.40
2022-12-20T10:31:40.491Z,91.17
2022-12-20T10:34:09.076Z,91.66
2022-12-20T10:36:39.010Z,90.57
2022-12-20T10:39:08.702Z,90.61
2022-12-20T10:41:49.301Z,90.32
2022-12-20T10:44:21.346Z,89.99
2022-12-20T10:46:53.910Z,89.76
2022-12-20T10:49:27.892Z,89.63
2022-12-20T10:51:58.997Z,88.60
2022-12-20T10:54:32.529Z,88.87
2022-12-20T10:57:02.700Z,88.70
2022-12-20T10:59:35.526Z,88.63
2022-12-20T11:02:23.271Z,88.67
2022-12-20T11:05:00.829Z,88.04
2022-12-20T11:07:33.344Z,88.12
2022-12-20T11:10:02.909Z,88.47
2022-12-20T11:12:30.807Z,88.43
2022-12-20T11:15:10.163Z,88.12
2022-12-20T11:17:41.043Z,87.71
2022-12-20T11:20:32.041Z,87.70
2022-12-20T11:23:14.846Z,87.39
2022-12-20T11:26:02.227Z,86.99
2022-12-20T11:28:47.208Z,86.51
2022-12-20T11:31:25.856Z,86.14
2022-12-20T11:34:04.581Z,86.01
2022-12-20T11:36:45.540Z,85.89
2022-12-20T11:39:26.794Z,85.87
2022-12-20T11:42:04.802Z,86.17
2022-12-20T11:44:58.867Z,86.48
2022-12-20T11:48:01.069Z,86.52
2022-12-20T11:50:43.440Z,86.65
2022-12-20T11:53:17.767Z,86.34
2022-12-20T11:55:53.202Z,86.20
2022-12-20T11:58:26.744Z,85.76
2022-12-20T12:00:59.917Z,85.76
2022-12-20T12:03:33.701Z,85.62
2022-12-20T12:06:05.806Z,85.46
2022-12-20T12:08:42.287Z,85.98
2022-12-20T12:11:40.353Z,85.65
2022-12-20T12:14:07.457Z,85.25
2022-12-20T12:16:38.947Z,86.13
2022-12-20T12:19:12.392Z,85.13
2022-12-20T12:21:45.167Z,85.52
2022-12-20T12:24:20.325Z,85.39
2022-12-20T12:26:49.643Z,85.84
2022-12-20T12:29:19.559Z,85.58
2022-12-20T12:31:52.513Z,85.74
2022-12-20T12:34:37.347Z,85.97
2022-12-20T12:37:34.715Z,85.36
2022-12-20T12:40:30.250Z,85.82
2022-12-20T12:46:16.355Z,85.72
2022-12-20T12:48:49.995Z,85.91
2022-12-20T12:51:26.108Z,85.82
2022-12-20T12:53:56.317Z,85.95
2022-12-20T12:56:45.582Z,86.74
2022-12-20T12:59:50.331Z,86.55
2022-12-20T13:02:50.954Z,86.96
2022-12-20T13:05:34.548Z,87.49
2022-12-20T13:08:02.867Z,87.88
2022-12-20T13:11:04.014Z,87.29
2022-12-20T13:13:32.283Z,88.25
2022-12-20T13:16:48.784Z,88.57
2022-12-20T13:19:18.457Z,88.28
2022-12-20T13:21:48.490Z,88.26
2022-12-20T13:24:50.597Z,87.71
2022-12-20T13:27:32.941Z,89.10
2022-12-20T13:30:22.065Z,88.88
2022-12-20T13:33:24.224Z,88.28
2022-12-20T13:36:03.068Z,87.44
2022-12-20T13:38:53.510Z,88.40
2022-12-20T13:41:40.765Z,88.01
2022-12-20T13:44:36.901Z,88.08
2022-12-20T13:47:18.484Z,87.99
2022-12-20T13:49:46.593Z,88.16
2022-12-20T13:52:22.922Z,87.96
2022-12-20T13:54:54.521Z,87.93
2022-12-20T13:57:30.582Z,88.03
2022-12-20T14:00:06.392Z,88.40
2022-12-20T14:02:40.987Z,88.19
2022-12-20T14:05:17.402Z,88.30
2022-12-20T14:07:49.604Z,90.00
2022-12-20T14:10:21.937Z,89.51
2022-12-20T14:12:53.807Z,89.67
2022-12-20T14:15:27.594Z,89.31
2022-12-20T14:17:56.073Z,90.36
2022-12-20T14:20:29.053Z,90.04
2022-12-20T14:23:05.974Z,89.97
2022-12-20T14:25:39.661Z,89.11
2022-12-20T14:28:26.461Z,89.33
2022-12-20T14:30:55.712Z,89.36
2022-12-20T14:33:30.250Z,89.44
2022-12-20T14:35:59.940Z,89.55
2022-12-20T14:38:32.281Z,89.32
2022-12-20T14:41:00.159Z,90.77
2022-12-20T14:43:33.399Z,88.95
2022-12-20T14:46:19.099Z,89.82
2022-12-20T14:48:47.523Z,89.68
2022-12-20T14:51:21.807Z,90.29
2022-12-20T14:53:53.425Z,89.85
2022-12-20T14:56:31.523Z,88.91
2022-12-20T14:59:14.461Z,90.24
2022-12-20T15:01:44.408Z,89.80
2022-12-20T15:04:25.555Z,90.08
2022-12-20T15:06:53.931Z,89.98
2022-12-20T15:09:23.281Z,89.21
2022-12-20T15:11:52.658Z,89.74
2022-12-20T15:14:33.154Z,90.92
2022-12-20T15:17:01.077Z,90.35
2022-12-20T15:19:29.044Z,90.37
2022-12-20T15:21:57.510Z,89.99
2022-12-20T15:24:29.141Z,90.58
2022-12-20T15:26:57.325Z,90.00
2022-12-20T15:29:27.074Z,90.60
2022-12-20T15:32:02.312Z,90.29
2022-12-20T15:34:35.215Z,90.42
2022-12-20T15:37:04.706Z,90.26
2022-12-20T15:39:34.895Z,90.09
2022-12-20T15:42:06.696Z,89.88
2022-12-20T15:44:36.005Z,89.27
2022-12-20T15:47:04.110Z,89.57
2022-12-20T15:49:33.778Z,89.59
2022-12-20T15:52:01.641Z,90.11
2022-12-20T15:54:32.707Z,90.87
2022-12-20T15:57:07.447Z,90.66
2022-12-20T16:02:25.095Z,90.37
2022-12-20T16:04:54.159Z,91.86
2022-12-20T16:07:22.505Z,91.35
2022-12-20T16:09:50.315Z,91.95
2022-12-20T16:12:23.658Z,92.03
2022-12-20T16:14:51.709Z,92.29
2022-12-20T16:17:19.570Z,91.85
2022-12-20T16:19:48.223Z,91.90
2022-12-20T16:22:17.774Z,92.62
2022-12-20T16:24:45.896Z,92.53
2022-12-20T16:27:13.982Z,92.04
2022-12-20T16:29:43.256Z,92.23
2022-12-20T16:32:15.621Z,92.46
2022-12-20T16:34:43.749Z,91.88
2022-12-20T16:37:12.890Z,91.59
2022-12-20T16:39:41.334Z,91.23
2022-12-20T16:42:14.941Z,89.16
2022-12-20T16:44:45.470Z,88.57
2022-12-20T16:47:14.545Z,88.44
2022-12-20T16:49:51.311Z,87.95
2022-12-20T16:52:22.029Z,88.20
2022-12-20T16:54:50.408Z,87.83
2022-12-20T16:57:18.345Z,87.39
2022-12-20T16:59:47.595Z,88.00
2022-12-20T17:02:24.628Z,88.00
2022-12-20T17:04:52.547Z,87.46
2022-12-20T17:07:20.435Z,88.07
2022-12-20T17:12:33.464Z,88.73
2022-12-20T17:15:04.082Z,88.62
2022-12-20T17:17:31.916Z,87.37
2022-12-20T17:20:00.129Z,86.27
2022-12-20T17:22:28.133Z,86.81
2022-12-20T17:24:56.130Z,85.93
2022-12-20T17:27:24.056Z,86.25
2022-12-20T17:29:52.187Z,86.62
2022-12-20T17:32:23.415Z,86.75
2022-12-20T17:34:52.083Z,85.68
2022-12-20T17:37:20.945Z,85.86
2022-12-20T17:39:49.015Z,86.12
2022-12-20T17:42:17.655Z,85.62
2022-12-20T17:44:46.704Z,85.78
2022-12-20T17:47:14.720Z,86.25
2022-12-20T17:49:43.983Z,85.82
2022-12-20T17:52:14.870Z,85.83
2022-12-20T17:54:43.323Z,86.70
2022-12-20T17:57:14.974Z,86.57
2022-12-20T17:59:43.413Z,86.26
2022-12-20T18:02:20.840Z,86.24
2022-12-20T18:04:50.823Z,85.98
2022-12-20T18:07:18.898Z,86.25
2022-12-20T18:09:47.812Z,85.83
2022-12-20T18:12:15.817Z,85.64
2022-12-20T18:14:43.793Z,86.12
2022-12-20T18:17:11.992Z,85.86
2022-12-20T18:19:40.769Z,85.55
2022-12-20T18:22:09.937Z,85.15
2022-12-20T18:24:37.905Z,85.49
2022-12-20T18:27:05.824Z,86.28
2022-12-20T18:29:33.962Z,86.02
2022-12-20T18:32:02.021Z,85.96
2022-12-20T18:34:30.127Z,86.73
2022-12-20T18:36:57.952Z,87.21
2022-12-20T18:39:27.173Z,87.13
2022-12-20T18:41:55.127Z,87.10
2022-12-20T18:44:22.984Z,87.81
2022-12-20T18:46:50.844Z,86.92
2022-12-20T18:49:19.069Z,86.63
2022-12-20T18:51:46.986Z,86.99
2022-12-20T18:54:15.247Z,87.03
2022-12-20T18:56:44.414Z,87.06
2022-12-20T18:59:13.066Z,86.99
2022-12-20T19:01:42.139Z,87.00
2022-12-20T19:04:11.270Z,87.29
2022-12-20T19:06:39.829Z,87.17
2022-12-20T19:09:33.964Z,87.25
2022-12-20T19:12:03.190Z,87.35
2022-12-20T19:14:31.286Z,87.07
2022-12-20T19:16:59.632Z,87.88
2022-12-20T19:19:27.687Z,88.06
2022-12-20T19:21:55.554Z,88.08
2022-12-20T19:24:23.476Z,87.75
2022-12-20T19:26:51.313Z,87.94
2022-12-20T19:29:20.520Z,88.10
2022-12-20T19:31:48.774Z,88.40
2022-12-20T19:34:16.632Z,88.57
2022-12-20T19:36:45.968Z,88.66
2022-12-20T19:39:15.965Z,88.32
2022-12-20T19:41:50.673Z,88.69
2022-12-20T19:44:29.354Z,88.48
2022-12-20T19:46:57.304Z,88.32
2022-12-20T19:49:25.207Z,88.76
2022-12-20T19:51:53.070Z,88.51
2022-12-20T19:54:20.943Z,88.90
2022-12-20T19:56:48.756Z,89.03
2022-12-20T19:59:16.713Z,88.87
2022-12-20T20:01:46.155Z,89.15
2022-12-20T20:04:14.076Z,89.12
2022-12-20T20:06:41.948Z,88.91
2022-12-20T20:09:10.029Z,89.27
2022-12-20T20:11:38.193Z,88.63
2022-12-20T20:14:09.303Z,88.92
2022-12-20T20:16:37.451Z,89.10
2022-12-20T20:19:06.932Z,88.74
2022-12-20T20:21:36.323Z,89.48
2022-12-20T20:24:04.772Z,89.16
2022-12-20T20:26:32.721Z,89.58
2022-12-20T20:29:02.262Z,89.25
2022-12-20T20:31:30.530Z,88.89
2022-12-20T20:33:59.097Z,88.86
2022-12-20T20:36:29.777Z,89.10
2022-12-20T20:38:57.827Z,89.17
2022-12-20T20:41:25.768Z,88.87
2022-12-20T20:43:53.638Z,89.02
2022-12-20T20:46:21.566Z,88.12
2022-12-20T20:48:49.415Z,88.41
2022-12-20T20:51:17.337Z,88.04
2022-12-20T20:53:46.602Z,88.58
2022-12-20T20:56:14.501Z,88.19
2022-12-20T20:58:42.336Z,87.41
2022-12-20T21:01:11.718Z,86.77
2022-12-20T21:03:40.360Z,87.18
2022-12-20T21:08:58.645Z,87.38
2022-12-20T21:11:26.654Z,87.08
2022-12-20T21:13:55.049Z,87.33
2022-12-20T21:16:24.421Z,86.95
2022-12-20T21:18:52.606Z,87.09
2022-12-20T21:21:21.351Z,87.54
2022-12-20T21:23:49.567Z,87.32
2022-12-20T21:26:20.581Z,88.03
2022-12-20T21:28:48.414Z,88.97
2022-12-20T21:31:18.615Z,89.44
2022-12-20T21:33:47.016Z,89.59
2022-12-20T21:36:17.046Z,90.06
2022-12-20T21:38:50.205Z,89.52
2022-12-20T21:41:20.834Z,89.81
2022-12-20T21:43:48.697Z,89.44
2022-12-20T21:46:16.871Z,89.22
2022-12-20T21:48:45.562Z,89.73
2022-12-20T21:51:15.474Z,89.34
2022-12-20T21:53:44.512Z,89.63
2022-12-20T21:56:12.684Z,91.33
2022-12-20T21:58:42.284Z,89.96
2022-12-20T22:01:10.834Z,90.80
2022-12-20T22:03:39.437Z,90.69
2022-12-20T22:06:07.903Z,89.97
2022-12-20T22:08:35.808Z,90.63
2022-12-20T22:11:06.063Z,91.36
2022-12-20T22:13:40.695Z,89.48
2022-12-20T22:16:12.232Z,90.35
2022-12-20T22:18:41.023Z,91.26
2022-12-20T22:21:10.785Z,91.87
2022-12-20T22:23:39.478Z,91.29
2022-12-20T22:26:09.666Z,91.44
2022-12-20T22:28:38.211Z,91.99
2022-12-20T22:31:12.092Z,92.13
2022-12-20T22:33:41.438Z,91.44
2022-12-20T22:36:10.406Z,92.39
2022-12-20T22:38:38.289Z,93.04
2022-12-20T22:41:11.129Z,92.85
2022-12-20T22:43:41.053Z,93.04
2022-12-20T22:46:11.518Z,92.41
2022-12-20T22:48:40.491Z,92.24
2022-12-20T22:51:10.728Z,92.89
2022-12-20T22:53:38.747Z,92.83
2022-12-20T22:56:08.043Z,92.50
2022-12-20T22:58:36.703Z,92.66
2022-12-20T23:01:08.276Z,92.25
2022-12-20T23:03:38.212Z,91.80
2022-12-20T23:06:08.184Z,91.82
2022-12-20T23:08:38.028Z,91.59
2022-12-20T23:11:28.394Z,91.29
2022-12-20T23:14:13.618Z,91.60
2022-12-20T23:16:41.467Z,91.00
2022-12-20T23:19:10.660Z,91.31
2022-12-20T23:21:55.780Z,91.31
2022-12-20T23:24:23.837Z,91.17
2022-12-20T23:26:51.738Z,91.16
2022-12-20T23:29:19.579Z,91.30
2022-12-20T23:31:47.502Z,90.88
2022-12-20T23:34:16.874Z,91.47
2022-12-20T23:36:44.732Z,90.73
2022-12-20T23:39:12.638Z,91.54
2022-12-20T23:41:40.529Z,91.04
2022-12-20T23:44:08.506Z,91.49
2022-12-20T23:46:36.443Z,91.22
2022-12-20T23:49:04.377Z,91.49
2022-12-20T23:51:34.644Z,91.25
2022-12-20T23:54:02.617Z,91.58
2022-12-20T23:56:30.435Z,91.65
2022-12-20T23:58:58.412Z,92.51
